Wetterdaten: Sonntag, 03.05.2026
Datum Zeit Außen Temp. Server Temp. +20m Feuchte Feuchte +20m Luftdruck Regen Wind Richtung Richtung Sonnenschein Helligkeit Solar Taupunkt
03.05.2026 00:00 14,1 °C 24,9 °C 14,3 °C 58 % 15 % 1014,7 hPa 0,00 l/m² 51,3 km/h (7 Bft) S-SW 195 ° 0 min 0 lux 0 W/m² 6,0 °C
03.05.2026 00:15 14,0 °C 24,8 °C 14,3 °C 58 % 15 % 1014,7 hPa 0,00 l/m² 51,3 km/h (7 Bft) S-SW 195 ° 0 min 0 lux 0 W/m² 5,9 °C
03.05.2026 00:30 13,7 °C 24,8 °C 13,9 °C 59 % 15 % 1014,7 hPa 0,00 l/m² 51,3 km/h (7 Bft) S-SW 195 ° 0 min 0 lux 0 W/m² 5,8 °C
03.05.2026 00:45 13,4 °C 24,6 °C 13,6 °C 60 % 15 % 1014,7 hPa 0,00 l/m² 51,3 km/h (7 Bft) S-SW 195 ° 0 min 0 lux 0 W/m² 5,8 °C
03.05.2026 01:00 13,3 °C 24,5 °C 13,5 °C 59 % 15 % 1014,7 hPa 0,00 l/m² 51,3 km/h (7 Bft) S-SW 195 ° 0 min 0 lux 0 W/m² 5,5 °C
03.05.2026 01:15 13,2 °C 24,5 °C 13,4 °C 60 % 15 % 1014,7 hPa 0,00 l/m² 51,3 km/h (7 Bft) S-SW 195 ° 0 min 0 lux 0 W/m² 5,6 °C
03.05.2026 01:30 13,0 °C 24,3 °C 13,2 °C 60 % 15 % 1014,8 hPa 0,00 l/m² 51,3 km/h (7 Bft) S-SW 195 ° 0 min 0 lux 0 W/m² 5,4 °C
03.05.2026 01:45 12,9 °C 24,2 °C 13,1 °C 60 % 15 % 1014,8 hPa 0,00 l/m² 51,3 km/h (7 Bft) S-SW 195 ° 0 min 0 lux 0 W/m² 5,3 °C
03.05.2026 02:00 12,7 °C 24,1 °C 12,9 °C 61 % 15 % 1014,8 hPa 0,00 l/m² 51,3 km/h (7 Bft) S-SW 195 ° 0 min 0 lux 0 W/m² 5,4 °C
03.05.2026 02:15 12,7 °C 24,0 °C 13,0 °C 61 % 15 % 1014,8 hPa 0,00 l/m² 51,3 km/h (7 Bft) S-SW 195 ° 0 min 0 lux 0 W/m² 5,4 °C
03.05.2026 02:30 12,6 °C 23,9 °C 12,8 °C 61 % 15 % 1014,8 hPa 0,00 l/m² 51,3 km/h (7 Bft) S-SW 195 ° 0 min 0 lux 0 W/m² 5,3 °C
03.05.2026 02:45 12,6 °C 23,8 °C 12,5 °C 62 % 15 % 1014,8 hPa 0,00 l/m² 51,3 km/h (7 Bft) S-SW 195 ° 0 min 0 lux 0 W/m² 5,5 °C
03.05.2026 03:00 12,1 °C 23,8 °C 12,1 °C 63 % 25 % 1014,9 hPa 0,00 l/m² 51,3 km/h (7 Bft) S-SW 195 ° 0 min 0 lux 0 W/m² 5,3 °C
03.05.2026 03:15 11,9 °C 23,6 °C 11,9 °C 64 % 26 % 1013,9 hPa 0,00 l/m² 51,3 km/h (7 Bft) S-SW 195 ° 0 min 0 lux 0 W/m² 5,3 °C
03.05.2026 03:30 11,7 °C 23,4 °C 11,8 °C 65 % 26 % 1013,9 hPa 0,00 l/m² 51,3 km/h (7 Bft) S-SW 195 ° 0 min 0 lux 0 W/m² 5,3 °C
03.05.2026 03:45 11,6 °C 23,3 °C 11,7 °C 64 % 26 % 1013,9 hPa 0,00 l/m² 51,3 km/h (7 Bft) S-SW 195 ° 0 min 0 lux 0 W/m² 5,0 °C
03.05.2026 04:00 11,6 °C 23,2 °C 12,0 °C 65 % 26 % 1013,9 hPa 0,00 l/m² 51,3 km/h (7 Bft) S-SW 195 ° 0 min 0 lux 0 W/m² 5,2 °C
03.05.2026 04:15 11,6 °C 23,1 °C 11,9 °C 64 % 25 % 1013,9 hPa 0,00 l/m² 51,3 km/h (7 Bft) S-SW 195 ° 0 min 0 lux 0 W/m² 5,0 °C
03.05.2026 04:30 11,6 °C 23,0 °C 11,9 °C 64 % 25 % 1013,9 hPa 0,00 l/m² 51,3 km/h (7 Bft) S-SW 195 ° 0 min 0 lux 0 W/m² 5,0 °C
03.05.2026 04:45 11,3 °C 22,9 °C 11,5 °C 65 % 26 % 1013,9 hPa 0,00 l/m² 51,3 km/h (7 Bft) S-SW 195 ° 0 min 0 lux 0 W/m² 5,0 °C
03.05.2026 05:00 10,7 °C 22,8 °C 10,9 °C 66 % 28 % 1014,0 hPa 0,00 l/m² 51,3 km/h (7 Bft) S-SW 195 ° 0 min 0 lux 0 W/m² 4,6 °C
03.05.2026 05:15 10,6 °C 22,8 °C 10,9 °C 68 % 30 % 1014,0 hPa 0,00 l/m² 51,3 km/h (7 Bft) S-SW 195 ° 0 min 0 lux 0 W/m² 4,9 °C
03.05.2026 05:30 10,6 °C 22,6 °C 10,6 °C 68 % 31 % 1014,0 hPa 0,00 l/m² 51,3 km/h (7 Bft) S-SW 195 ° 0 min 43 lux 0 W/m² 4,9 °C
03.05.2026 05:45 10,3 °C 22,5 °C 10,4 °C 69 % 32 % 1014,0 hPa 0,00 l/m² 51,3 km/h (7 Bft) S-SW 195 ° 0 min 379 lux 0 W/m² 4,9 °C
03.05.2026 06:00 10,1 °C 22,5 °C 10,4 °C 70 % 33 % 1014,0 hPa 0,00 l/m² 51,3 km/h (7 Bft) S-SW 195 ° 15 min 1,19 klux 8 W/m² 4,9 °C
03.05.2026 06:15 10,1 °C 22,3 °C 10,7 °C 71 % 35 % 1014,0 hPa 0,00 l/m² 51,3 km/h (7 Bft) S-SW 195 ° 0 min 2,81 klux 18 W/m² 5,1 °C
03.05.2026 06:29 10,2 °C 22,3 °C 13,0 °C 71 % 29 % 1014,0 hPa 0,00 l/m² 51,3 km/h (7 Bft) S-SW 195 ° 0 min 5,14 klux 33 W/m² 5,2 °C
03.05.2026 06:45 10,6 °C 22,3 °C 12,6 °C 70 % 26 % 1014,0 hPa 0,00 l/m² 51,3 km/h (7 Bft) S-SW 195 ° 0 min 4,60 klux 30 W/m² 5,4 °C
03.05.2026 07:00 11,0 °C 22,3 °C 13,2 °C 69 % 26 % 1014,0 hPa 0,00 l/m² 51,3 km/h (7 Bft) S-SW 195 ° 0 min 5,84 klux 38 W/m² 5,5 °C
03.05.2026 07:15 11,7 °C 22,3 °C 13,8 °C 68 % 23 % 1013,9 hPa 0,00 l/m² 51,3 km/h (7 Bft) S-SW 195 ° 0 min 8,78 klux 57 W/m² 6,0 °C
03.05.2026 07:30 14,1 °C 22,4 °C 15,9 °C 62 % 15 % 1012,6 hPa 0,00 l/m² 51,3 km/h (7 Bft) S-SW 195 ° 0 min 12,0 klux 78 W/m² 6,9 °C
03.05.2026 07:45 14,5 °C 22,4 °C 16,0 °C 61 % 15 % 1012,6 hPa 0,00 l/m² 51,3 km/h (7 Bft) S-SW 195 ° 0 min 11,3 klux 74 W/m² 7,1 °C
03.05.2026 08:00 15,8 °C 22,5 °C 18,7 °C 58 % 15 % 1012,4 hPa 0,00 l/m² 51,3 km/h (7 Bft) S-SW 195 ° 15 min 20,3 klux 132 W/m² 7,6 °C
03.05.2026 08:15 20,5 °C 22,7 °C 22,8 °C 51 % 15 % 1011,9 hPa 0,00 l/m² 51,3 km/h (7 Bft) S-SW 195 ° 15 min 32,7 klux 213 W/m² 10,0 °C
03.05.2026 08:30 24,0 °C 22,9 °C 21,8 °C 38 % 15 % 1011,6 hPa 0,00 l/m² 51,3 km/h (7 Bft) S-SW 195 ° 15 min 40,3 klux 263 W/m² 8,8 °C
03.05.2026 08:45 21,3 °C 23,1 °C 20,9 °C 39 % 15 % 1011,9 hPa 0,00 l/m² 51,3 km/h (7 Bft) S-SW 195 ° 15 min 42,2 klux 275 W/m² 6,8 °C
03.05.2026 09:00 19,5 °C 23,3 °C 20,3 °C 38 % 15 % 1012,0 hPa 0,00 l/m² 51,3 km/h (7 Bft) S-SW 195 ° 15 min 36,9 klux 240 W/m² 4,8 °C
03.05.2026 09:15 19,5 °C 23,5 °C 20,5 °C 39 % 15 % 1012,0 hPa 0,00 l/m² 51,3 km/h (7 Bft) S-SW 195 ° 15 min 41,6 klux 271 W/m² 5,2 °C
03.05.2026 09:30 19,9 °C 23,8 °C 21,1 °C 39 % 15 % 1012,0 hPa 0,00 l/m² 51,3 km/h (7 Bft) S-SW 195 ° 15 min 51,7 klux 337 W/m² 5,5 °C
03.05.2026 09:45 21,1 °C 24,1 °C 22,7 °C 38 % 15 % 1011,9 hPa 0,00 l/m² 51,3 km/h (7 Bft) S-SW 195 ° 15 min 57,9 klux 377 W/m² 6,2 °C
03.05.2026 10:00 21,6 °C 24,4 °C 23,7 °C 39 % 15 % 1011,8 hPa 0,00 l/m² 51,3 km/h (7 Bft) S-SW 195 ° 15 min 65,6 klux 427 W/m² 7,0 °C
03.05.2026 10:15 22,0 °C 24,7 °C 23,2 °C 37 % 15 % 1011,8 hPa 0,00 l/m² 51,3 km/h (7 Bft) S-SW 195 ° 15 min 52,5 klux 342 W/m² 6,6 °C
03.05.2026 10:30 22,2 °C 24,9 °C 23,6 °C 38 % 15 % 1011,8 hPa 0,00 l/m² 51,3 km/h (7 Bft) S-SW 195 ° 15 min 50,2 klux 327 W/m² 7,2 °C
03.05.2026 10:45 22,1 °C 25,0 °C 24,2 °C 40 % 15 % 1012,8 hPa 0,00 l/m² 51,3 km/h (7 Bft) S-SW 195 ° 15 min 49,7 klux 324 W/m² 7,9 °C
03.05.2026 11:00 22,8 °C 25,2 °C 23,7 °C 39 % 15 % 1012,7 hPa 0,00 l/m² 51,3 km/h (7 Bft) S-SW 195 ° 15 min 56,6 klux 369 W/m² 8,1 °C
03.05.2026 11:15 22,7 °C 25,3 °C 24,0 °C 39 % 15 % 1012,8 hPa 0,00 l/m² 51,3 km/h (7 Bft) S-SW 195 ° 15 min 53,5 klux 349 W/m² 8,0 °C
03.05.2026 11:30 22,7 °C 25,2 °C 24,2 °C 38 % 15 % 1012,8 hPa 0,00 l/m² 51,3 km/h (7 Bft) S-SW 195 ° 0 min 37,1 klux 242 W/m² 7,6 °C
03.05.2026 11:45 23,1 °C 25,2 °C 24,6 °C 37 % 15 % 1012,7 hPa 0,00 l/m² 51,3 km/h (7 Bft) S-SW 195 ° 0 min 32,7 klux 213 W/m² 7,6 °C
03.05.2026 12:00 22,5 °C 25,2 °C 23,9 °C 34 % 15 % 1012,8 hPa 0,00 l/m² 51,3 km/h (7 Bft) S-SW 195 ° 0 min 29,4 klux 192 W/m² 5,9 °C
03.05.2026 12:15 21,7 °C 25,1 °C 23,6 °C 39 % 15 % 1012,9 hPa 0,00 l/m² 51,3 km/h (7 Bft) S-SW 195 ° 0 min 16,6 klux 108 W/m² 7,1 °C
03.05.2026 12:30 20,4 °C 25,0 °C 21,8 °C 37 % 15 % 1013,0 hPa 0,00 l/m² 51,3 km/h (7 Bft) S-SW 195 ° 0 min 11,9 klux 78 W/m² 5,2 °C
03.05.2026 12:45 20,9 °C 25,0 °C 22,6 °C 37 % 15 % 1011,9 hPa 0,00 l/m² 51,3 km/h (7 Bft) S-SW 195 ° 0 min 19,0 klux 124 W/m² 5,7 °C
03.05.2026 13:00 21,6 °C 24,9 °C 23,4 °C 36 % 15 % 1011,8 hPa 0,00 l/m² 51,3 km/h (7 Bft) S-SW 195 ° 0 min 24,4 klux 159 W/m² 5,9 °C
03.05.2026 13:15 21,5 °C 24,9 °C 23,4 °C 38 % 15 % 1011,8 hPa 0,00 l/m² 51,3 km/h (7 Bft) S-SW 195 ° 0 min 23,0 klux 150 W/m² 6,6 °C
03.05.2026 13:30 22,2 °C 24,9 °C 24,1 °C 36 % 15 % 1011,8 hPa 0,00 l/m² 51,3 km/h (7 Bft) S-SW 195 ° 0 min 27,6 klux 180 W/m² 6,4 °C
03.05.2026 13:45 22,5 °C 24,9 °C 24,3 °C 34 % 15 % 1011,7 hPa 0,00 l/m² 51,3 km/h (7 Bft) S-SW 195 ° 0 min 26,4 klux 172 W/m² 5,9 °C
03.05.2026 14:00 22,3 °C 25,0 °C 24,4 °C 36 % 15 % 1011,8 hPa 0,00 l/m² 51,3 km/h (7 Bft) S-SW 195 ° 0 min 25,4 klux 165 W/m² 6,5 °C
03.05.2026 14:15 22,2 °C 25,1 °C 23,8 °C 38 % 15 % 1011,8 hPa 0,00 l/m² 51,3 km/h (7 Bft) S-SW 195 ° 0 min 27,6 klux 180 W/m² 7,2 °C
03.05.2026 14:30 22,2 °C 25,1 °C 23,8 °C 38 % 15 % 1011,8 hPa 0,00 l/m² 51,3 km/h (7 Bft) S-SW 195 ° 0 min 26,7 klux 174 W/m² 7,2 °C
03.05.2026 14:45 22,4 °C 25,2 °C 23,4 °C 35 % 15 % 1011,8 hPa 0,00 l/m² 51,3 km/h (7 Bft) S-SW 195 ° 0 min 24,4 klux 159 W/m² 6,2 °C
03.05.2026 15:00 22,3 °C 25,1 °C 23,5 °C 35 % 15 % 1010,7 hPa 0,00 l/m² 51,3 km/h (7 Bft) S-SW 195 ° 0 min 19,5 klux 127 W/m² 6,1 °C
03.05.2026 15:15 21,8 °C 25,1 °C 23,1 °C 36 % 15 % 1010,8 hPa 0,00 l/m² 51,3 km/h (7 Bft) S-SW 195 ° 0 min 13,6 klux 89 W/m² 6,1 °C
03.05.2026 15:30 21,4 °C 25,1 °C 22,5 °C 36 % 15 % 1010,8 hPa 0,00 l/m² 51,3 km/h (7 Bft) S-SW 195 ° 0 min 8,92 klux 58 W/m² 5,7 °C
03.05.2026 15:45 21,3 °C 25,0 °C 22,5 °C 35 % 15 % 1010,8 hPa 0,00 l/m² 51,3 km/h (7 Bft) S-SW 195 ° 0 min 12,3 klux 80 W/m² 5,2 °C
03.05.2026 16:00 21,4 °C 25,0 °C 22,5 °C 33 % 15 % 1010,8 hPa 0,00 l/m² 51,3 km/h (7 Bft) S-SW 195 ° 0 min 12,5 klux 81 W/m² 4,5 °C
03.05.2026 16:15 21,3 °C 25,0 °C 22,3 °C 32 % 15 % 1010,8 hPa 0,00 l/m² 51,3 km/h (7 Bft) S-SW 195 ° 0 min 11,1 klux 72 W/m² 3,9 °C
03.05.2026 16:30 21,4 °C 25,0 °C 22,5 °C 32 % 15 % 1010,8 hPa 0,00 l/m² 51,3 km/h (7 Bft) S-SW 195 ° 0 min 12,8 klux 83 W/m² 4,0 °C
03.05.2026 16:45 21,6 °C 24,9 °C 22,8 °C 33 % 15 % 1010,8 hPa 0,00 l/m² 51,3 km/h (7 Bft) S-SW 195 ° 0 min 15,4 klux 100 W/m² 4,6 °C
03.05.2026 17:00 21,5 °C 24,9 °C 22,7 °C 34 % 15 % 1010,8 hPa 0,00 l/m² 51,3 km/h (7 Bft) S-SW 195 ° 0 min 13,3 klux 87 W/m² 5,0 °C
03.05.2026 17:15 21,7 °C 24,9 °C 22,9 °C 34 % 15 % 1010,8 hPa 0,00 l/m² 51,3 km/h (7 Bft) S-SW 195 ° 0 min 16,2 klux 106 W/m² 5,2 °C
03.05.2026 17:30 22,1 °C 25,0 °C 23,4 °C 34 % 15 % 1009,7 hPa 0,00 l/m² 51,3 km/h (7 Bft) S-SW 195 ° 15 min 35,1 klux 229 W/m² 5,5 °C
03.05.2026 17:45 23,1 °C 25,0 °C 23,9 °C 33 % 15 % 1009,6 hPa 0,00 l/m² 51,3 km/h (7 Bft) S-SW 195 ° 15 min 37,4 klux 244 W/m² 5,9 °C
03.05.2026 18:00 22,9 °C 25,1 °C 23,6 °C 33 % 15 % 1009,6 hPa 0,00 l/m² 51,3 km/h (7 Bft) S-SW 195 ° 0 min 22,2 klux 145 W/m² 5,8 °C
03.05.2026 18:15 22,2 °C 25,1 °C 22,7 °C 32 % 15 % 1009,7 hPa 0,00 l/m² 51,3 km/h (7 Bft) S-SW 195 ° 0 min 10,9 klux 71 W/m² 4,7 °C
03.05.2026 18:30 21,7 °C 25,1 °C 22,3 °C 33 % 15 % 1009,8 hPa 0,00 l/m² 51,3 km/h (7 Bft) S-SW 195 ° 0 min 7,54 klux 49 W/m² 4,7 °C
03.05.2026 18:45 21,5 °C 25,1 °C 22,1 °C 33 % 15 % 1009,8 hPa 0,00 l/m² 51,3 km/h (7 Bft) S-SW 195 ° 0 min 7,30 klux 48 W/m² 4,5 °C
03.05.2026 19:00 21,3 °C 25,0 °C 22,2 °C 34 % 15 % 1009,8 hPa 0,00 l/m² 51,3 km/h (7 Bft) S-SW 195 ° 0 min 7,69 klux 50 W/m² 4,8 °C
03.05.2026 19:15 21,1 °C 25,0 °C 21,8 °C 35 % 15 % 1009,8 hPa 0,00 l/m² 51,3 km/h (7 Bft) S-SW 195 ° 0 min 6,84 klux 45 W/m² 5,0 °C
03.05.2026 19:30 20,8 °C 24,9 °C 21,5 °C 36 % 15 % 1009,9 hPa 0,00 l/m² 51,3 km/h (7 Bft) S-SW 195 ° 0 min 5,52 klux 36 W/m² 5,2 °C
03.05.2026 19:45 20,4 °C 25,0 °C 20,9 °C 37 % 15 % 1009,9 hPa 0,00 l/m² 51,3 km/h (7 Bft) S-SW 195 ° 0 min 5,20 klux 34 W/m² 5,2 °C
03.05.2026 20:00 20,1 °C 24,9 °C 20,3 °C 37 % 15 % 1009,9 hPa 0,00 l/m² 51,3 km/h (7 Bft) S-SW 195 ° 0 min 3,72 klux 24 W/m² 5,0 °C
03.05.2026 20:15 19,8 °C 24,8 °C 20,3 °C 38 % 15 % 1010,0 hPa 0,00 l/m² 51,3 km/h (7 Bft) S-SW 195 ° 0 min 2,14 klux 14 W/m² 5,1 °C
03.05.2026 20:30 19,6 °C 24,8 °C 20,0 °C 39 % 15 % 1010,0 hPa 0,00 l/m² 51,3 km/h (7 Bft) S-SW 195 ° 0 min 1,28 klux 8 W/m² 5,3 °C
03.05.2026 20:45 19,3 °C 24,7 °C 19,7 °C 40 % 15 % 1010,0 hPa 0,00 l/m² 51,3 km/h (7 Bft) S-SW 195 ° 0 min 598 lux 0 W/m² 5,4 °C
03.05.2026 21:00 19,0 °C 24,6 °C 19,4 °C 42 % 15 % 1010,0 hPa 0,00 l/m² 51,3 km/h (7 Bft) S-SW 195 ° 0 min 176 lux 0 W/m² 5,8 °C
03.05.2026 21:15 18,9 °C 24,5 °C 19,2 °C 43 % 15 % 1011,1 hPa 0,00 l/m² 51,3 km/h (7 Bft) S-SW 195 ° 0 min 20 lux 0 W/m² 6,0 °C
03.05.2026 21:30 18,8 °C 24,4 °C 19,2 °C 43 % 15 % 1011,1 hPa 0,00 l/m² 51,3 km/h (7 Bft) S-SW 195 ° 0 min 1 lux 0 W/m² 6,0 °C
03.05.2026 21:45 18,9 °C 24,3 °C 19,4 °C 43 % 15 % 1011,1 hPa 0,00 l/m² 51,3 km/h (7 Bft) S-SW 195 ° 0 min 0 lux 0 W/m² 6,0 °C
03.05.2026 22:00 18,9 °C 24,3 °C 19,3 °C 43 % 15 % 1011,1 hPa 0,00 l/m² 51,3 km/h (7 Bft) S-SW 195 ° 0 min 0 lux 0 W/m² 6,0 °C
03.05.2026 22:15 18,6 °C 24,2 °C 19,1 °C 44 % 15 % 1011,1 hPa 0,00 l/m² 51,3 km/h (7 Bft) S-SW 195 ° 0 min 0 lux 0 W/m² 6,1 °C
03.05.2026 22:30 18,3 °C 24,2 °C 18,9 °C 46 % 15 % 1011,1 hPa 0,00 l/m² 51,3 km/h (7 Bft) S-SW 195 ° 0 min 0 lux 0 W/m² 6,5 °C
03.05.2026 22:45 18,1 °C 24,1 °C 18,7 °C 46 % 15 % 1011,2 hPa 0,00 l/m² 51,3 km/h (7 Bft) S-SW 195 ° 0 min 0 lux 0 W/m² 6,3 °C
03.05.2026 23:00 17,9 °C 24,0 °C 18,5 °C 47 % 15 % 1011,2 hPa 0,00 l/m² 51,3 km/h (7 Bft) S-SW 195 ° 0 min 0 lux 0 W/m² 6,4 °C
03.05.2026 23:15 17,7 °C 23,9 °C 18,2 °C 48 % 15 % 1012,2 hPa 0,00 l/m² 51,3 km/h (7 Bft) S-SW 195 ° 0 min 0 lux 0 W/m² 6,6 °C
03.05.2026 23:30 17,5 °C 23,9 °C 18,0 °C 50 % 15 % 1012,2 hPa 0,00 l/m² 51,3 km/h (7 Bft) S-SW 195 ° 0 min 0 lux 0 W/m² 7,0 °C
03.05.2026 23:45 17,3 °C 23,9 °C 17,8 °C 51 % 15 % 1012,3 hPa 0,00 l/m² 51,3 km/h (7 Bft) S-SW 195 ° 0 min 0 lux 0 W/m² 7,1 °C
_ Min-Zeit 06:00 06:15 05:45 16:15 00:00 17:45 - 00:00 - - - - - 16:15
Minimum _ 10,1 °C 22,3 °C 10,4 °C 32 % 15 % 1009,6 hPa - 51,3 km/h (7 Bft) - - - - - 3,9 °C
_ Max-Zeit 08:30 11:15 11:45 06:15 06:15 03:00 00:00 00:00 - - 06:00 10:00 10:00 08:15
Maximum _ 24,0 °C 25,3 °C 24,6 °C 71 % 35 % 1014,9 hPa 0,00 l/m² 51,3 km/h
S-SW (7 Bft)
- - 15 min 65,6 klux 427 W/m² 10,0 °C
Durchschnitt _ 17,9 °C 24,2 °C 18,8 °C 47 % 17 % 1012,2 hPa #0,00 l/m² 51,3 km/h (7 Bft) S-SW - #4:15 h 14,0 klux 148 W/m² 5,9 °C